createdAt,value
2018-05-01T00:00:49.142Z,0
2018-05-01T00:01:51.531Z,0
2018-05-01T00:02:53.907Z,0
2018-05-01T00:03:56.303Z,0
2018-05-01T00:04:58.680Z,0
2018-05-01T00:06:01.067Z,0
2018-05-01T00:07:03.452Z,0
2018-05-01T00:08:06.115Z,0
2018-05-01T00:09:08.498Z,0
2018-05-01T00:10:11.265Z,0
2018-05-01T00:11:13.648Z,0
2018-05-01T00:12:16.032Z,0
2018-05-01T00:13:18.424Z,0
2018-05-01T00:14:20.806Z,0
2018-05-01T00:15:23.465Z,0
2018-05-01T00:16:25.844Z,0
2018-05-01T00:17:28.237Z,0
2018-05-01T00:18:30.613Z,0
2018-05-01T00:19:32.991Z,0
2018-05-01T00:20:35.362Z,0
2018-05-01T00:21:37.746Z,0
2018-05-01T00:22:40.131Z,0
2018-05-01T00:23:42.529Z,0
2018-05-01T00:24:44.904Z,0
2018-05-01T00:25:47.290Z,0
2018-05-01T00:26:49.677Z,0
2018-05-01T00:27:52.059Z,0
2018-05-01T00:28:54.444Z,0
2018-05-01T00:29:56.821Z,0
2018-05-01T00:30:59.199Z,0
2018-05-01T00:32:02.168Z,0
2018-05-01T00:33:04.549Z,0
2018-05-01T00:34:07.496Z,0
2018-05-01T00:35:09.880Z,0
2018-05-01T00:36:12.270Z,0
2018-05-01T00:37:14.927Z,0
2018-05-01T00:38:18.268Z,0
2018-05-01T00:39:20.633Z,0
2018-05-01T00:40:23.403Z,0
2018-05-01T00:41:25.791Z,0
2018-05-01T00:42:28.169Z,0
2018-05-01T00:43:31.220Z,0
2018-05-01T00:44:33.598Z,0
2018-05-01T00:45:35.988Z,0
2018-05-01T00:46:38.362Z,0
2018-05-01T00:47:40.737Z,0
2018-05-01T00:48:43.135Z,0
2018-05-01T00:49:45.509Z,0
2018-05-01T00:50:47.886Z,0
2018-05-01T00:51:50.360Z,0
2018-05-01T00:52:52.657Z,0
2018-05-01T00:53:55.037Z,0
2018-05-01T00:54:57.425Z,0
2018-05-01T00:55:59.795Z,0
2018-05-01T00:57:02.177Z,0
2018-05-01T00:58:04.575Z,0
2018-05-01T00:59:06.951Z,0
2018-05-01T01:00:09.327Z,0
2018-05-01T01:01:11.705Z,0
2018-05-01T01:02:14.387Z,0
2018-05-01T01:03:17.053Z,0
2018-05-01T01:04:19.443Z,0
2018-05-01T01:05:21.809Z,0
2018-05-01T01:06:24.626Z,0
2018-05-01T01:07:26.965Z,0
2018-05-01T01:08:29.343Z,0
2018-05-01T01:09:32.010Z,0
2018-05-01T01:10:34.388Z,0
2018-05-01T01:11:36.765Z,0
2018-05-01T01:12:39.162Z,0
2018-05-01T01:13:41.536Z,0
2018-05-01T01:14:43.914Z,0
2018-05-01T01:15:46.292Z,0
2018-05-01T01:16:48.950Z,0
2018-05-01T01:17:51.336Z,0
2018-05-01T01:18:53.722Z,0
2018-05-01T01:19:56.099Z,0
2018-05-01T01:20:58.488Z,0
2018-05-01T01:22:01.523Z,0
2018-05-01T01:23:03.920Z,0
2018-05-01T01:24:06.576Z,0
2018-05-01T01:25:08.957Z,0
2018-05-01T01:26:11.339Z,0
2018-05-01T01:27:14.003Z,0
2018-05-01T01:28:16.663Z,0
2018-05-01T01:29:19.054Z,0
2018-05-01T01:30:21.426Z,0
2018-05-01T01:31:23.809Z,0
2018-05-01T01:32:26.480Z,0
2018-05-01T01:33:28.856Z,0
2018-05-01T01:34:31.236Z,0
2018-05-01T01:35:33.619Z,0
2018-05-01T01:36:35.995Z,0
2018-05-01T01:37:38.387Z,0
2018-05-01T01:38:40.760Z,0
2018-05-01T01:39:43.162Z,0
2018-05-01T01:40:45.537Z,0
2018-05-01T01:41:47.926Z,0
2018-05-01T01:42:50.304Z,0
2018-05-01T01:43:52.689Z,0
2018-05-01T01:44:55.449Z,0
2018-05-01T01:45:57.836Z,0
2018-05-01T01:47:00.211Z,0
2018-05-01T01:48:02.603Z,0
2018-05-01T01:49:04.981Z,0
2018-05-01T01:50:07.362Z,0
2018-05-01T01:51:09.749Z,0
2018-05-01T01:52:12.415Z,0
2018-05-01T01:53:14.791Z,0
2018-05-01T01:54:17.476Z,0
2018-05-01T01:55:19.840Z,0
2018-05-01T01:56:22.224Z,0
2018-05-01T01:57:24.607Z,0
2018-05-01T01:58:26.990Z,0
2018-05-01T01:59:29.661Z,0
2018-05-01T02:00:32.035Z,0
2018-05-01T02:01:34.411Z,0
2018-05-01T02:02:37.436Z,0
2018-05-01T02:03:39.816Z,0
2018-05-01T02:04:42.186Z,0
2018-05-01T02:05:44.956Z,0
2018-05-01T02:06:47.344Z,0
2018-05-01T02:07:50.284Z,0
2018-05-01T02:08:52.670Z,0
2018-05-01T02:09:55.051Z,0
2018-05-01T02:10:57.711Z,0
2018-05-01T02:12:00.108Z,0
2018-05-01T02:13:02.490Z,0
2018-05-01T02:14:05.153Z,0
2018-05-01T02:15:07.530Z,0
2018-05-01T02:16:09.915Z,0
2018-05-01T02:17:12.299Z,0
2018-05-01T02:18:14.676Z,0
2018-05-01T02:19:17.361Z,0
2018-05-01T02:20:19.739Z,0
2018-05-01T02:21:22.113Z,0
2018-05-01T02:22:24.491Z,0
2018-05-01T02:23:26.860Z,0
2018-05-01T02:24:29.250Z,0
2018-05-01T02:25:31.630Z,0
2018-05-01T02:26:34.009Z,0
2018-05-01T02:27:36.390Z,0
2018-05-01T02:28:39.169Z,0
2018-05-01T02:29:41.544Z,0
2018-05-01T02:30:43.940Z,0
2018-05-01T02:31:46.320Z,0
2018-05-01T02:32:49.088Z,0
2018-05-01T02:33:51.757Z,0
2018-05-01T02:34:54.442Z,0
2018-05-01T02:35:56.814Z,0
2018-05-01T02:36:59.776Z,0
2018-05-01T02:38:02.141Z,0
2018-05-01T02:39:04.538Z,0
2018-05-01T02:40:07.582Z,0
2018-05-01T02:41:10.331Z,0
2018-05-01T02:42:13.413Z,0
2018-05-01T02:43:15.797Z,0
2018-05-01T02:44:18.466Z,0
2018-05-01T02:45:21.140Z,0
2018-05-01T02:46:24.476Z,0
2018-05-01T02:47:27.136Z,0
2018-05-01T02:48:30.081Z,0
2018-05-01T02:49:32.740Z,0
2018-05-01T02:50:35.408Z,0
2018-05-01T02:51:38.339Z,0
2018-05-01T02:52:41.290Z,0
2018-05-01T02:53:44.253Z,0
2018-05-01T02:54:46.637Z,0
2018-05-01T02:55:49.024Z,0
2018-05-01T02:56:51.414Z,0
2018-05-01T02:57:53.802Z,0
2018-05-01T02:58:56.191Z,0
2018-05-01T02:59:58.580Z,0
2018-05-01T03:01:01.247Z,0
2018-05-01T03:02:04.627Z,0
2018-05-01T03:03:07.676Z,0
2018-05-01T03:04:10.340Z,0
2018-05-01T03:05:12.998Z,0
2018-05-01T03:06:15.764Z,0
2018-05-01T03:07:18.422Z,0
2018-05-01T03:08:21.197Z,0
2018-05-01T03:09:23.860Z,0
2018-05-01T03:10:26.535Z,0
2018-05-01T03:11:29.202Z,0
2018-05-01T03:12:31.987Z,0
2018-05-01T03:13:35.038Z,0
2018-05-01T03:14:38.002Z,0
2018-05-01T03:15:40.395Z,0
2018-05-01T03:16:42.767Z,0
2018-05-01T03:17:45.160Z,0
2018-05-01T03:18:47.551Z,0
2018-05-01T03:19:50.223Z,0
2018-05-01T03:20:52.607Z,0
2018-05-01T03:21:54.988Z,0
2018-05-01T03:22:57.363Z,0
2018-05-01T03:23:59.757Z,0
2018-05-01T03:25:02.130Z,0
2018-05-01T03:26:04.499Z,0
2018-05-01T03:27:07.175Z,0
2018-05-01T03:28:10.173Z,0
2018-05-01T03:29:12.551Z,0
2018-05-01T03:30:15.318Z,0
2018-05-01T03:31:18.257Z,0
2018-05-01T03:32:20.636Z,0
2018-05-01T03:33:23.016Z,0
2018-05-01T03:34:25.708Z,0
2018-05-01T03:35:28.071Z,0
2018-05-01T03:36:31.019Z,0
2018-05-01T03:37:34.053Z,0
2018-05-01T03:38:36.722Z,0
2018-05-01T03:39:39.107Z,0
2018-05-01T03:40:41.494Z,0
2018-05-01T03:41:43.871Z,0
2018-05-01T03:42:46.538Z,0
2018-05-01T03:43:48.920Z,1
2018-05-01T03:44:51.308Z,1
2018-05-01T03:45:54.268Z,1
2018-05-01T03:46:56.650Z,1
2018-05-01T03:47:59.034Z,1
2018-05-01T03:49:01.417Z,1
2018-05-01T03:50:03.792Z,1
2018-05-01T03:51:06.185Z,1
2018-05-01T03:52:08.569Z,1
2018-05-01T03:53:11.540Z,1
2018-05-01T03:54:13.916Z,2
2018-05-01T03:55:16.304Z,2
2018-05-01T03:56:18.682Z,2
2018-05-01T03:57:21.069Z,2
2018-05-01T03:58:23.728Z,2
2018-05-01T03:59:26.118Z,2
2018-05-01T04:00:28.495Z,2
2018-05-01T04:01:31.165Z,2
2018-05-01T04:02:33.543Z,2
2018-05-01T04:03:35.926Z,2
2018-05-01T04:04:38.316Z,2
2018-05-01T04:05:40.968Z,2
2018-05-01T04:06:43.630Z,2
2018-05-01T04:07:46.302Z,2
2018-05-01T04:08:48.676Z,2
2018-05-01T04:09:51.069Z,3
2018-05-01T04:10:53.439Z,3
2018-05-01T04:11:55.816Z,3
2018-05-01T04:12:58.197Z,3
2018-05-01T04:14:00.574Z,4
2018-05-01T04:15:02.951Z,4
2018-05-01T04:16:05.899Z,4
2018-05-01T04:17:08.279Z,4
2018-05-01T04:18:10.694Z,4
2018-05-01T04:19:13.391Z,4
2018-05-01T04:20:15.775Z,5
2018-05-01T04:21:18.152Z,5
2018-05-01T04:22:20.597Z,5
2018-05-01T04:23:22.968Z,4
2018-05-01T04:24:25.354Z,4
2018-05-01T04:25:27.788Z,3
2018-05-01T04:26:30.127Z,3
2018-05-01T04:27:32.795Z,3
2018-05-01T04:28:35.169Z,4
2018-05-01T04:29:37.552Z,5
2018-05-01T04:30:39.932Z,5
2018-05-01T04:31:42.319Z,4
2018-05-01T04:32:44.978Z,5
2018-05-01T04:33:47.644Z,6
2018-05-01T04:34:50.048Z,6
2018-05-01T04:35:52.420Z,7
2018-05-01T04:36:54.801Z,9
2018-05-01T04:37:57.181Z,10
2018-05-01T04:38:59.560Z,11
2018-05-01T04:40:01.944Z,15
2018-05-01T04:41:04.713Z,17
2018-05-01T04:42:07.093Z,18
2018-05-01T04:43:09.482Z,19
2018-05-01T04:44:12.150Z,18
2018-05-01T04:45:14.533Z,18
2018-05-01T04:46:16.913Z,18
2018-05-01T04:47:19.307Z,19
2018-05-01T04:48:21.680Z,20
2018-05-01T04:49:24.067Z,21
2018-05-01T04:50:26.446Z,21
2018-05-01T04:51:28.828Z,22
2018-05-01T04:52:31.204Z,23
2018-05-01T04:53:33.585Z,23
2018-05-01T04:54:36.251Z,25
2018-05-01T04:55:38.633Z,26
2018-05-01T04:56:41.019Z,26
2018-05-01T04:57:43.399Z,25
2018-05-01T04:58:45.794Z,24
2018-05-01T04:59:48.561Z,26
2018-05-01T05:00:50.935Z,26
2018-05-01T05:01:53.322Z,26
2018-05-01T05:02:55.709Z,26
2018-05-01T05:03:59.151Z,26
2018-05-01T05:05:01.538Z,25
2018-05-01T05:06:03.910Z,25
2018-05-01T05:07:06.293Z,25
2018-05-01T05:08:08.686Z,25
2018-05-01T05:09:11.066Z,25
2018-05-01T05:10:13.739Z,26
2018-05-01T05:11:16.126Z,26
2018-05-01T05:12:18.507Z,27
2018-05-01T05:13:20.881Z,28
2018-05-01T05:14:23.261Z,28
2018-05-01T05:15:25.657Z,29
2018-05-01T05:16:28.041Z,30
2018-05-01T05:17:30.419Z,32
2018-05-01T05:18:32.801Z,34
2018-05-01T05:19:35.175Z,35
2018-05-01T05:20:37.554Z,36
2018-05-01T05:21:40.220Z,38
2018-05-01T05:22:42.588Z,38
2018-05-01T05:23:45.251Z,39
2018-05-01T05:24:47.638Z,39
2018-05-01T05:25:50.021Z,42
2018-05-01T05:26:52.698Z,44
2018-05-01T05:27:55.089Z,46
2018-05-01T05:28:57.464Z,49
2018-05-01T05:29:59.845Z,50
2018-05-01T05:31:02.505Z,52
2018-05-01T05:32:05.179Z,52
2018-05-01T05:33:08.014Z,52
2018-05-01T05:34:10.407Z,52
2018-05-01T05:35:12.787Z,52
2018-05-01T05:36:15.222Z,52
2018-05-01T05:37:17.551Z,52
2018-05-01T05:38:19.932Z,53
2018-05-01T05:39:22.316Z,52
2018-05-01T05:40:24.702Z,52
2018-05-01T05:41:27.077Z,52
2018-05-01T05:42:29.461Z,53
2018-05-01T05:43:31.844Z,52
2018-05-01T05:44:34.223Z,53
2018-05-01T05:45:36.884Z,54
2018-05-01T05:46:39.550Z,53
2018-05-01T05:47:41.928Z,57
2018-05-01T05:48:44.328Z,61
2018-05-01T05:49:46.975Z,60
2018-05-01T05:50:49.366Z,67
2018-05-01T05:51:51.750Z,66
2018-05-01T05:52:54.136Z,66
2018-05-01T05:53:56.518Z,63
2018-05-01T05:54:58.908Z,64
2018-05-01T05:56:01.568Z,67
2018-05-01T05:57:03.954Z,63
2018-05-01T05:58:06.327Z,68
2018-05-01T05:59:08.996Z,70
2018-05-01T06:00:11.382Z,72
2018-05-01T06:01:13.768Z,73
2018-05-01T06:02:16.150Z,68
2018-05-01T06:03:18.532Z,82
2018-05-01T06:04:20.905Z,79
2018-05-01T06:05:23.304Z,74
2018-05-01T06:06:25.683Z,80
2018-05-01T06:07:28.073Z,81
2018-05-01T06:08:30.838Z,82
2018-05-01T06:09:33.226Z,81
2018-05-01T06:10:35.606Z,82
2018-05-01T06:11:37.994Z,69
2018-05-01T06:12:40.377Z,68
2018-05-01T06:13:42.793Z,63
2018-05-01T06:14:45.128Z,70
2018-05-01T06:15:47.519Z,73
2018-05-01T06:16:49.904Z,77
2018-05-01T06:17:52.288Z,74
2018-05-01T06:18:55.233Z,65
2018-05-01T06:19:57.619Z,50
2018-05-01T06:20:59.996Z,56
2018-05-01T06:22:03.149Z,64
2018-05-01T06:23:06.320Z,63
2018-05-01T06:24:08.691Z,59
2018-05-01T06:25:11.361Z,59
2018-05-01T06:26:13.737Z,52
2018-05-01T06:27:16.138Z,52
2018-05-01T06:28:18.525Z,52
2018-05-01T06:29:20.902Z,46
2018-05-01T06:30:23.287Z,52
2018-05-01T06:31:26.129Z,67
2018-05-01T06:32:28.479Z,70
2018-05-01T06:33:30.854Z,72
2018-05-01T06:34:33.627Z,68
2018-05-01T06:35:36.006Z,64
2018-05-01T06:36:38.402Z,72
2018-05-01T06:37:40.774Z,63
2018-05-01T06:38:43.151Z,71
2018-05-01T06:39:45.539Z,75
2018-05-01T06:40:47.918Z,83
2018-05-01T06:41:50.297Z,92
2018-05-01T06:42:52.964Z,86
2018-05-01T06:43:55.428Z,76
2018-05-01T06:44:58.059Z,64
2018-05-01T06:46:00.714Z,42
2018-05-01T06:47:03.688Z,40
2018-05-01T06:48:06.077Z,40
2018-05-01T06:49:08.740Z,44
2018-05-01T06:50:11.124Z,32
2018-05-01T06:51:13.500Z,50
2018-05-01T06:52:15.885Z,68
2018-05-01T06:53:18.267Z,83
2018-05-01T06:54:20.644Z,89
2018-05-01T06:55:23.423Z,94
2018-05-01T06:56:25.796Z,110
2018-05-01T06:57:28.172Z,110
2018-05-01T06:58:30.554Z,101
2018-05-01T06:59:32.940Z,90
2018-05-01T07:00:35.308Z,90
2018-05-01T07:01:37.693Z,70
2018-05-01T07:02:40.463Z,57
2018-05-01T07:03:42.848Z,65
2018-05-01T07:04:45.524Z,56
2018-05-01T07:05:47.909Z,55
2018-05-01T07:06:50.675Z,80
2018-05-01T07:07:53.354Z,84
2018-05-01T07:08:55.741Z,71
2018-05-01T07:09:58.214Z,85
2018-05-01T07:11:00.839Z,52
2018-05-01T07:12:03.245Z,33
2018-05-01T07:13:05.623Z,26
2018-05-01T07:14:07.999Z,41
2018-05-01T07:15:10.391Z,61
2018-05-01T07:16:13.174Z,47
2018-05-01T07:17:15.569Z,44
2018-05-01T07:18:17.952Z,33
2018-05-01T07:19:20.334Z,28
2018-05-01T07:20:22.719Z,29
2018-05-01T07:21:25.114Z,35
2018-05-01T07:22:27.494Z,40
2018-05-01T07:23:29.876Z,44
2018-05-01T07:24:32.259Z,60
2018-05-01T07:25:34.639Z,60
2018-05-01T07:26:37.028Z,60
2018-05-01T07:27:39.800Z,52
2018-05-01T07:28:42.175Z,44
2018-05-01T07:29:44.558Z,54
2018-05-01T07:30:46.948Z,45
2018-05-01T07:31:49.331Z,40
2018-05-01T07:32:51.716Z,34
2018-05-01T07:33:54.384Z,27
2018-05-01T07:34:56.767Z,44
2018-05-01T07:35:59.165Z,57
2018-05-01T07:37:01.825Z,36
2018-05-01T07:38:04.212Z,39
2018-05-01T07:39:06.593Z,50
2018-05-01T07:40:08.983Z,51
2018-05-01T07:41:11.368Z,71
2018-05-01T07:42:14.037Z,81
2018-05-01T07:43:16.423Z,55
2018-05-01T07:44:18.796Z,59
2018-05-01T07:45:21.187Z,74
2018-05-01T07:46:23.571Z,70
2018-05-01T07:47:26.225Z,87
2018-05-01T07:48:28.611Z,70
2018-05-01T07:49:30.998Z,58
2018-05-01T07:50:33.383Z,78
2018-05-01T07:51:36.453Z,77
2018-05-01T07:52:38.829Z,70
2018-05-01T07:53:41.216Z,75
2018-05-01T07:54:43.614Z,90
2018-05-01T07:55:45.992Z,83
2018-05-01T07:56:48.487Z,69
2018-05-01T07:57:50.905Z,79
2018-05-01T07:58:53.292Z,66
2018-05-01T07:59:55.689Z,63
2018-05-01T08:00:58.074Z,62
2018-05-01T08:02:00.525Z,54
2018-05-01T08:03:02.932Z,90
2018-05-01T08:04:05.596Z,95
2018-05-01T08:05:07.975Z,70
2018-05-01T08:06:10.360Z,101
2018-05-01T08:07:12.728Z,100
2018-05-01T08:08:15.115Z,65
2018-05-01T08:09:17.788Z,62
2018-05-01T08:10:20.440Z,36
2018-05-01T08:11:22.811Z,34
2018-05-01T08:12:25.199Z,41
2018-05-01T08:13:27.592Z,41
2018-05-01T08:14:30.535Z,36
2018-05-01T08:15:32.916Z,42
2018-05-01T08:16:35.304Z,40
2018-05-01T08:17:37.679Z,53
2018-05-01T08:18:40.077Z,45
2018-05-01T08:19:42.444Z,28
2018-05-01T08:20:45.110Z,29
2018-05-01T08:21:47.491Z,34
2018-05-01T08:22:49.871Z,31
2018-05-01T08:23:52.602Z,33
2018-05-01T08:24:55.118Z,19
2018-05-01T08:25:57.483Z,20
2018-05-01T08:26:59.869Z,22
2018-05-01T08:28:02.255Z,29
2018-05-01T08:29:04.636Z,52
2018-05-01T08:30:07.018Z,49
2018-05-01T08:31:09.403Z,45
2018-05-01T08:32:11.781Z,48
2018-05-01T08:33:14.445Z,63
2018-05-01T08:34:16.823Z,39
2018-05-01T08:35:19.495Z,46
2018-05-01T08:36:21.875Z,57
2018-05-01T08:37:24.261Z,58
2018-05-01T08:38:26.642Z,52
2018-05-01T08:39:29.059Z,43
2018-05-01T08:40:31.444Z,39
2018-05-01T08:41:33.834Z,38
2018-05-01T08:42:36.268Z,42
2018-05-01T08:43:38.656Z,46
2018-05-01T08:44:41.082Z,51
2018-05-01T08:45:43.762Z,45
2018-05-01T08:46:46.146Z,44
2018-05-01T08:47:48.634Z,39
2018-05-01T08:48:51.010Z,36
2018-05-01T08:49:53.671Z,47
2018-05-01T08:50:56.334Z,48
2018-05-01T08:51:58.993Z,48
2018-05-01T08:53:01.378Z,53
2018-05-01T08:54:03.772Z,49
2018-05-01T08:55:06.145Z,43
2018-05-01T08:56:08.533Z,42
2018-05-01T08:57:10.909Z,40
2018-05-01T08:58:13.299Z,36
2018-05-01T08:59:15.682Z,33
2018-05-01T09:00:18.342Z,41
2018-05-01T09:01:20.724Z,50
2018-05-01T09:02:23.111Z,59
2018-05-01T09:03:25.765Z,45
2018-05-01T09:04:28.150Z,40
2018-05-01T09:05:30.528Z,52
2018-05-01T09:06:32.955Z,36
2018-05-01T09:07:35.320Z,27
2018-05-01T09:08:37.720Z,29
2018-05-01T09:09:40.107Z,30
2018-05-01T09:10:43.030Z,36
2018-05-01T09:11:46.423Z,38
2018-05-01T09:12:52.065Z,31
2018-05-01T09:13:56.961Z,50
2018-05-01T09:15:02.046Z,40
2018-05-01T09:16:05.899Z,41
2018-05-01T09:17:14.374Z,43
2018-05-01T09:18:22.979Z,45
2018-05-01T09:19:32.399Z,47
2018-05-01T09:20:44.196Z,42
2018-05-01T09:21:55.012Z,36
2018-05-01T09:23:05.981Z,40
2018-05-01T09:24:16.737Z,41
2018-05-01T09:25:28.059Z,36
2018-05-01T09:26:38.458Z,35
2018-05-01T09:27:48.175Z,35
2018-05-01T09:28:57.259Z,33
2018-05-01T09:30:05.192Z,37
2018-05-01T09:31:18.023Z,35
2018-05-01T09:32:32.111Z,44
2018-05-01T09:33:46.998Z,39
2018-05-01T09:35:02.919Z,37
2018-05-01T09:36:13.619Z,39
2018-05-01T09:37:30.098Z,38
2018-05-01T09:38:45.087Z,51
2018-05-01T09:39:56.640Z,46
2018-05-01T09:41:08.344Z,45
2018-05-01T09:42:29.256Z,43
2018-05-01T09:43:40.201Z,45
2018-05-01T09:44:57.618Z,53
2018-05-01T09:46:08.442Z,39
2018-05-01T09:47:18.889Z,59
2018-05-01T09:48:30.995Z,53
2018-05-01T09:49:48.754Z,42
2018-05-01T09:51:09.122Z,52
2018-05-01T09:52:25.251Z,58
2018-05-01T09:53:41.500Z,55
2018-05-01T09:55:14.163Z,67
2018-05-01T09:56:38.237Z,58
2018-05-01T09:57:57.794Z,50
2018-05-01T09:59:14.055Z,52
2018-05-01T10:00:26.399Z,48
2018-05-01T10:01:38.066Z,51
2018-05-01T10:02:50.583Z,50
2018-05-01T10:03:56.696Z,56
2018-05-01T10:05:02.558Z,56
2018-05-01T10:06:05.216Z,52
2018-05-01T10:07:07.689Z,66
2018-05-01T10:08:29.746Z,68
2018-05-01T10:09:48.765Z,52
2018-05-01T10:11:06.149Z,51
2018-05-01T10:12:19.852Z,46
2018-05-01T10:13:34.567Z,46
2018-05-01T10:14:58.836Z,45
2018-05-01T10:16:20.240Z,37
2018-05-01T10:17:27.527Z,41
2018-05-01T10:18:30.276Z,44
2018-05-01T10:19:36.791Z,41
2018-05-01T10:20:42.413Z,42
2018-05-01T10:21:44.792Z,37
2018-05-01T10:22:47.741Z,36
2018-05-01T10:23:50.406Z,36
2018-05-01T10:24:52.781Z,40
2018-05-01T10:25:55.167Z,35
2018-05-01T10:26:57.828Z,35
2018-05-01T10:28:00.594Z,36
2018-05-01T10:29:02.970Z,39
2018-05-01T10:30:05.352Z,42
2018-05-01T10:31:07.739Z,41
2018-05-01T10:32:10.120Z,35
2018-05-01T10:33:12.515Z,35
2018-05-01T10:34:14.878Z,39
2018-05-01T10:35:17.265Z,43
2018-05-01T10:36:19.643Z,43
2018-05-01T10:37:22.028Z,38
2018-05-01T10:38:24.470Z,39
2018-05-01T10:39:26.790Z,38
2018-05-01T10:40:29.168Z,36
2018-05-01T10:41:31.938Z,44
2018-05-01T10:42:34.330Z,44
2018-05-01T10:43:36.986Z,33
2018-05-01T10:44:39.370Z,36
2018-05-01T10:45:41.777Z,36
2018-05-01T10:46:44.124Z,42
2018-05-01T10:47:46.507Z,46
2018-05-01T10:48:48.882Z,39
2018-05-01T10:49:51.270Z,42
2018-05-01T10:50:53.655Z,54
2018-05-01T10:51:56.033Z,58
2018-05-01T10:52:59.085Z,50
2018-05-01T10:54:01.782Z,59
2018-05-01T10:55:04.150Z,53
2018-05-01T10:56:06.527Z,50
2018-05-01T10:57:08.979Z,61
2018-05-01T10:58:11.659Z,47
2018-05-01T10:59:14.039Z,54
2018-05-01T11:00:16.431Z,52
2018-05-01T11:01:18.801Z,54
2018-05-01T11:02:21.183Z,49
2018-05-01T11:03:23.562Z,46
2018-05-01T11:04:26.232Z,45
2018-05-01T11:05:28.600Z,46
2018-05-01T11:06:31.269Z,46
2018-05-01T11:07:33.968Z,49
2018-05-01T11:08:36.345Z,56
2018-05-01T11:09:39.108Z,58
2018-05-01T11:10:41.769Z,52
2018-05-01T11:11:44.156Z,58
2018-05-01T11:12:47.126Z,75
2018-05-01T11:13:49.522Z,58
2018-05-01T11:14:51.881Z,54
2018-05-01T11:15:54.262Z,58
2018-05-01T11:16:56.652Z,53
2018-05-01T11:17:59.042Z,55
2018-05-01T11:19:01.697Z,47
2018-05-01T11:20:04.084Z,54
2018-05-01T11:21:06.470Z,63
2018-05-01T11:22:08.840Z,53
2018-05-01T11:23:11.227Z,56
2018-05-01T11:24:13.612Z,57
2018-05-01T11:25:15.983Z,56
2018-05-01T11:26:20.556Z,48
2018-05-01T11:27:23.703Z,44
2018-05-01T11:28:26.362Z,45
2018-05-01T11:29:28.756Z,38
2018-05-01T11:30:31.135Z,53
2018-05-01T11:31:33.507Z,53
2018-05-01T11:32:35.897Z,59
2018-05-01T11:33:38.303Z,56
2018-05-01T11:34:55.696Z,46
2018-05-01T11:35:58.071Z,46
2018-05-01T11:37:00.738Z,37
2018-05-01T11:38:03.113Z,53
2018-05-01T11:39:05.489Z,39
2018-05-01T11:40:07.863Z,50
2018-05-01T11:41:10.250Z,62
2018-05-01T11:42:12.620Z,35
2018-05-01T11:43:14.995Z,33
2018-05-01T11:44:17.377Z,35
2018-05-01T11:45:19.757Z,33
2018-05-01T11:46:22.225Z,38
2018-05-01T11:47:24.819Z,43
2018-05-01T11:48:27.459Z,34
2018-05-01T11:49:35.156Z,30
2018-05-01T11:50:38.247Z,32
2018-05-01T11:51:40.906Z,26
2018-05-01T11:52:43.289Z,28
2018-05-01T11:53:45.967Z,24
2018-05-01T11:54:48.335Z,23
2018-05-01T11:55:50.725Z,23
2018-05-01T11:56:53.104Z,20
2018-05-01T11:57:55.467Z,23
2018-05-01T11:58:57.849Z,22
2018-05-01T12:00:00.606Z,23
2018-05-01T12:01:03.189Z,34
2018-05-01T12:02:05.573Z,63
2018-05-01T12:03:07.953Z,50
2018-05-01T12:04:10.324Z,35
2018-05-01T12:05:12.994Z,30
2018-05-01T12:06:15.371Z,33
2018-05-01T12:07:18.042Z,25
2018-05-01T12:08:20.425Z,25
2018-05-01T12:09:23.092Z,31
2018-05-01T12:10:25.471Z,30
2018-05-01T12:11:27.861Z,31
2018-05-01T12:12:30.238Z,39
2018-05-01T12:13:32.614Z,29
2018-05-01T12:14:35.387Z,21
2018-05-01T12:15:37.755Z,21
2018-05-01T12:16:40.139Z,21
2018-05-01T12:17:42.515Z,21
2018-05-01T12:18:45.176Z,23
2018-05-01T12:19:47.830Z,26
2018-05-01T12:20:50.358Z,20
2018-05-01T12:21:52.828Z,21
2018-05-01T12:22:55.215Z,22
2018-05-01T12:23:57.592Z,21
2018-05-01T12:25:00.533Z,20
2018-05-01T12:26:03.469Z,19
2018-05-01T12:27:05.845Z,19
2018-05-01T12:28:08.216Z,21
2018-05-01T12:29:11.174Z,24
2018-05-01T12:30:13.957Z,33
2018-05-01T12:31:16.511Z,26
2018-05-01T12:32:18.883Z,25
2018-05-01T12:33:21.656Z,24
2018-05-01T12:34:24.032Z,25
2018-05-01T12:35:26.418Z,21
2018-05-01T12:36:29.515Z,19
2018-05-01T12:37:31.851Z,22
2018-05-01T12:38:34.496Z,23
2018-05-01T12:39:36.883Z,22
2018-05-01T12:40:39.589Z,22
2018-05-01T12:41:41.969Z,25
2018-05-01T12:42:44.941Z,27
2018-05-01T12:43:47.324Z,28
2018-05-01T12:44:50.000Z,31
2018-05-01T12:45:52.382Z,26
2018-05-01T12:46:54.769Z,25
2018-05-01T12:47:57.133Z,21
2018-05-01T12:48:59.532Z,30
2018-05-01T12:50:02.181Z,23
2018-05-01T12:51:04.897Z,21
2018-05-01T12:52:07.277Z,24
2018-05-01T12:53:09.689Z,22
2018-05-01T12:54:12.080Z,19
2018-05-01T12:55:14.748Z,17
2018-05-01T12:56:17.127Z,16
2018-05-01T12:57:19.617Z,16
2018-05-01T12:58:22.003Z,16
2018-05-01T12:59:24.498Z,18
2018-05-01T13:00:26.887Z,20
2018-05-01T13:01:29.276Z,18
2018-05-01T13:02:31.654Z,17
2018-05-01T13:03:34.318Z,17
2018-05-01T13:04:37.140Z,19
2018-05-01T13:05:39.527Z,16
2018-05-01T13:06:42.170Z,15
2018-05-01T13:07:44.551Z,19
2018-05-01T13:08:46.927Z,18
2018-05-01T13:10:19.701Z,18
2018-05-01T13:11:22.140Z,16
2018-05-01T13:12:24.653Z,16
2018-05-01T13:13:27.106Z,16
2018-05-01T13:14:29.540Z,16
2018-05-01T13:15:31.979Z,18
2018-05-01T13:16:34.425Z,19
2018-05-01T13:17:36.879Z,20
2018-05-01T13:18:39.344Z,23
2018-05-01T13:19:43.154Z,22
2018-05-01T13:20:45.951Z,25
2018-05-01T13:21:48.777Z,25
2018-05-01T13:22:52.046Z,24
2018-05-01T13:23:54.537Z,24
2018-05-01T13:24:57.594Z,23
2018-05-01T13:26:00.070Z,22
2018-05-01T13:27:02.639Z,19
2018-05-01T13:28:05.700Z,19
2018-05-01T13:29:08.260Z,20
2018-05-01T13:30:10.720Z,21
2018-05-01T13:31:13.441Z,18
2018-05-01T13:32:15.893Z,19
2018-05-01T13:33:18.338Z,20
2018-05-01T13:34:21.080Z,21
2018-05-01T13:35:23.507Z,21
2018-05-01T13:36:26.226Z,26
2018-05-01T13:37:28.683Z,23
2018-05-01T13:38:31.215Z,25
2018-05-01T13:39:33.654Z,25
2018-05-01T13:40:36.112Z,28
2018-05-01T13:41:38.535Z,24
2018-05-01T13:42:40.973Z,24
2018-05-01T13:43:43.416Z,23
2018-05-01T13:44:45.861Z,19
2018-05-01T13:45:48.300Z,22
2018-05-01T13:46:51.128Z,21
2018-05-01T13:47:53.559Z,21
2018-05-01T13:48:56.123Z,26
2018-05-01T13:49:58.551Z,24
2018-05-01T13:51:00.982Z,21
2018-05-01T13:52:03.711Z,23
2018-05-01T13:53:06.147Z,26
2018-05-01T13:54:08.586Z,20
2018-05-01T13:55:11.015Z,20
2018-05-01T13:56:13.740Z,25
2018-05-01T13:57:17.346Z,21
2018-05-01T13:58:20.089Z,26
2018-05-01T13:59:22.546Z,31
2018-05-01T14:00:24.976Z,28
2018-05-01T14:01:27.410Z,29
2018-05-01T14:02:29.841Z,31
2018-05-01T14:03:32.269Z,40
2018-05-01T14:04:35.108Z,50
2018-05-01T14:05:37.462Z,60
2018-05-01T14:06:40.166Z,57
2018-05-01T14:07:42.604Z,66
2018-05-01T14:08:45.049Z,75
2018-05-01T14:09:47.481Z,86
2018-05-01T14:10:49.924Z,67
2018-05-01T14:11:52.359Z,95
2018-05-01T14:12:54.816Z,104
2018-05-01T14:13:57.262Z,136
2018-05-01T14:14:59.707Z,95
2018-05-01T14:16:02.143Z,67
2018-05-01T14:17:05.181Z,60
2018-05-01T14:18:07.624Z,42
2018-05-01T14:19:10.075Z,36
2018-05-01T14:20:12.500Z,29
2018-05-01T14:21:15.243Z,42
2018-05-01T14:22:17.977Z,33
2018-05-01T14:23:20.416Z,30
2018-05-01T14:24:22.857Z,27
2018-05-01T14:25:25.430Z,31
2018-05-01T14:26:28.015Z,37
2018-05-01T14:27:30.464Z,46
2018-05-01T14:28:32.900Z,49
2018-05-01T14:29:35.615Z,38
2018-05-01T14:30:38.112Z,34
2018-05-01T14:31:40.821Z,28
2018-05-01T14:32:43.564Z,38
2018-05-01T14:33:45.993Z,38
2018-05-01T14:34:48.441Z,44
2018-05-01T14:35:50.873Z,43
2018-05-01T14:36:53.337Z,45
2018-05-01T14:37:56.049Z,47
2018-05-01T14:38:58.564Z,50
2018-05-01T14:40:00.983Z,31
2018-05-01T14:41:03.724Z,36
2018-05-01T14:42:06.174Z,47
2018-05-01T14:43:08.913Z,74
2018-05-01T14:44:11.658Z,64
2018-05-01T14:45:14.367Z,49
2018-05-01T14:46:17.132Z,39
2018-05-01T14:47:19.848Z,39
2018-05-01T14:48:22.316Z,47
2018-05-01T14:49:25.037Z,41
2018-05-01T14:50:27.505Z,42
2018-05-01T14:51:30.242Z,47
2018-05-01T14:52:32.718Z,39
2018-05-01T14:53:35.139Z,37
2018-05-01T14:54:37.878Z,45
2018-05-01T14:55:40.308Z,56
2018-05-01T14:56:42.761Z,47
2018-05-01T14:57:45.257Z,45
2018-05-01T14:58:48.086Z,42
2018-05-01T14:59:50.566Z,42
2018-05-01T15:00:53.017Z,31
2018-05-01T15:01:55.453Z,33
2018-05-01T15:02:58.184Z,34
2018-05-01T15:04:01.206Z,38
2018-05-01T15:05:03.979Z,31
2018-05-01T15:06:06.418Z,29
2018-05-01T15:07:08.902Z,25
2018-05-01T15:08:11.343Z,36
2018-05-01T15:09:13.764Z,28
2018-05-01T15:10:16.214Z,25
2018-05-01T15:11:18.641Z,23